Rockford, IL

2:32 AM CST on December 27, 2014 (GMT -0600)
Greater Rockford | Change Station
CLOSE
Current Station
Airport
Location: Rockford,
Elevation: 741 ft
Nearby Weather Stations

Elev 741 ft 42.19 °N, 89.09 °W | Updated 27 minutes ago

Overcast
Overcast
45 °F
Feels Like 41 °F
N
7
Wind Variable Wind from South

Today
High -- | Low -- °F
--% Chance of Precip.
Yesterday
High -- | Low -- °F
Precip. -- in
7:24 AM 4:30 PM
Waxing Crescent, 34% visible
Pressure 29.98 in
Visibility 10.0 miles
Clouds Mostly Cloudy 2300 ft
Mostly Cloudy 3700 ft
Overcast 8500 ft
Windchill 41 °F
Dew Point 42 °F
Humidity 90%
Rainfall 0.00 in
Snow Depth Not available.
UV 0 out of 12
Pollen .10 out of 12
Air Quality Not available.
Flu Activity Not available.
SPECI KRFD 270805Z 17006KT 10SM BKN023 BKN037 OVC085 07/06 A2998 RMK AO2 RAE01 P0000 T00720056

More Conditions Fewer Conditions

Pressure 29.98 in
Visibility 10.0 miles
Clouds Mostly Cloudy 2300 ft
Mostly Cloudy 3700 ft
Overcast 8500 ft
Windchill 41 °F
Dew Point 42 °F
Humidity 90%
Rainfall 0.00 in
Snow Depth Not available.
UV 0 out of 12
Pollen .10 out of 12
Air Quality Not available.
Flu Activity Not available.
SPECI KRFD 270805Z 17006KT 10SM BKN023 BKN037 OVC085 07/06 A2998 RMK AO2 RAE01 P0000 T00720056

More Conditions Fewer Conditions

10-Day Weather Forecast

Almanac

Astronomy

Dec. 27, 2014 Rise Set
Actual Time
Civil Twilight
Nautical Twilight
Astronomical Twilight
Moon
Length of Visible Light
Length of Day
Tomorrow will be .
, % of the Moon is Illuminated

Today's Extremes

State Highs State Lows

Community

WunderPhotos

Upload Photos

1,780,863 photos uploaded!

WunderBlogs® & News

Nearby

Air Quality

  Air Quality AQ Index Pollutant
Not available.

Snow Depth

Station Depth Elevation

Earthquake Activity

City Distance Mag. Time & Date
Minimum magnitude displayed is 2.5.

Coastal Water Temperatures

Place Temperature

Nearby Weather Stations